sensor_id;sensor_type;location;lat;lon;timestamp;temperature;humidity
59572;DHT22;74587;45.880;11.484;2024-03-06T00:04:47;7.30;99.90
59572;DHT22;74587;45.880;11.484;2024-03-06T00:07:13;7.20;99.90
59572;DHT22;74587;45.880;11.484;2024-03-06T00:09:39;7.40;99.90
59572;DHT22;74587;45.880;11.484;2024-03-06T00:12:05;7.30;99.90
59572;DHT22;74587;45.880;11.484;2024-03-06T00:14:32;7.30;99.90
59572;DHT22;74587;45.880;11.484;2024-03-06T00:16:58;7.30;99.90
59572;DHT22;74587;45.880;11.484;2024-03-06T00:19:23;7.20;99.90
59572;DHT22;74587;45.880;11.484;2024-03-06T00:21:49;7.30;99.90
59572;DHT22;74587;45.880;11.484;2024-03-06T00:24:16;7.50;99.90
59572;DHT22;74587;45.880;11.484;2024-03-06T00:26:43;7.60;99.90
59572;DHT22;74587;45.880;11.484;2024-03-06T00:29:10;7.80;99.90
59572;DHT22;74587;45.880;11.484;2024-03-06T00:31:37;7.50;99.70
59572;DHT22;74587;45.880;11.484;2024-03-06T00:34:03;7.50;99.90
59572;DHT22;74587;45.880;11.484;2024-03-06T00:36:30;7.40;99.90
59572;DHT22;74587;45.880;11.484;2024-03-06T00:38:56;7.30;99.90
59572;DHT22;74587;45.880;11.484;2024-03-06T00:41:22;7.40;99.90
59572;DHT22;74587;45.880;11.484;2024-03-06T00:43:48;7.10;99.90
59572;DHT22;74587;45.880;11.484;2024-03-06T00:46:14;7.40;99.90
59572;DHT22;74587;45.880;11.484;2024-03-06T00:49:00;7.30;99.90
59572;DHT22;74587;45.880;11.484;2024-03-06T00:51:26;7.40;99.90
59572;DHT22;74587;45.880;11.484;2024-03-06T00:53:52;7.30;99.90
59572;DHT22;74587;45.880;11.484;2024-03-06T00:56:18;7.50;99.90
59572;DHT22;74587;45.880;11.484;2024-03-06T00:58:44;7.50;99.20
59572;DHT22;74587;45.880;11.484;2024-03-06T01:01:10;7.70;98.60
59572;DHT22;74587;45.880;11.484;2024-03-06T01:03:37;7.70;97.50
59572;DHT22;74587;45.880;11.484;2024-03-06T01:06:05;7.80;96.50
59572;DHT22;74587;45.880;11.484;2024-03-06T01:08:33;7.40;98.10
59572;DHT22;74587;45.880;11.484;2024-03-06T01:11:02;7.50;99.10
59572;DHT22;74587;45.880;11.484;2024-03-06T01:13:28;7.50;99.90
59572;DHT22;74587;45.880;11.484;2024-03-06T01:15:54;7.30;99.90
59572;DHT22;74587;45.880;11.484;2024-03-06T01:18:21;7.40;99.90
59572;DHT22;74587;45.880;11.484;2024-03-06T01:20:47;7.50;99.90
59572;DHT22;74587;45.880;11.484;2024-03-06T01:23:13;7.20;99.90
59572;DHT22;74587;45.880;11.484;2024-03-06T01:25:38;7.20;99.90
59572;DHT22;74587;45.880;11.484;2024-03-06T01:28:05;7.20;99.90
59572;DHT22;74587;45.880;11.484;2024-03-06T01:30:31;7.10;99.90
59572;DHT22;74587;45.880;11.484;2024-03-06T01:32:57;7.20;99.90
59572;DHT22;74587;45.880;11.484;2024-03-06T01:35:24;7.20;99.90
59572;DHT22;74587;45.880;11.484;2024-03-06T01:37:50;7.00;99.90
59572;DHT22;74587;45.880;11.484;2024-03-06T01:40:19;7.20;99.90
59572;DHT22;74587;45.880;11.484;2024-03-06T01:42:47;7.20;99.90
59572;DHT22;74587;45.880;11.484;2024-03-06T01:45:17;6.80;99.90
59572;DHT22;74587;45.880;11.484;2024-03-06T01:47:43;6.90;99.90
59572;DHT22;74587;45.880;11.484;2024-03-06T01:50:09;7.00;99.90
59572;DHT22;74587;45.880;11.484;2024-03-06T01:52:36;7.20;99.90
59572;DHT22;74587;45.880;11.484;2024-03-06T01:55:03;6.90;99.90
59572;DHT22;74587;45.880;11.484;2024-03-06T01:57:31;7.00;99.90
59572;DHT22;74587;45.880;11.484;2024-03-06T01:59:57;7.30;99.90
59572;DHT22;74587;45.880;11.484;2024-03-06T02:02:23;7.20;99.90
59572;DHT22;74587;45.880;11.484;2024-03-06T02:04:49;7.00;99.90
59572;DHT22;74587;45.880;11.484;2024-03-06T02:07:16;7.10;99.90
59572;DHT22;74587;45.880;11.484;2024-03-06T02:09:43;7.30;99.90
59572;DHT22;74587;45.880;11.484;2024-03-06T02:12:09;7.30;99.90
59572;DHT22;74587;45.880;11.484;2024-03-06T02:14:36;7.20;99.90
59572;DHT22;74587;45.880;11.484;2024-03-06T02:17:02;7.40;99.90
59572;DHT22;74587;45.880;11.484;2024-03-06T02:19:42;7.40;99.90
59572;DHT22;74587;45.880;11.484;2024-03-06T02:22:11;7.20;99.90
59572;DHT22;74587;45.880;11.484;2024-03-06T02:24:46;7.20;99.90
59572;DHT22;74587;45.880;11.484;2024-03-06T02:27:12;7.40;99.90
59572;DHT22;74587;45.880;11.484;2024-03-06T02:29:38;7.10;99.90
59572;DHT22;74587;45.880;11.484;2024-03-06T02:32:07;7.10;99.90
59572;DHT22;74587;45.880;11.484;2024-03-06T02:34:34;6.90;99.90
59572;DHT22;74587;45.880;11.484;2024-03-06T02:37:00;7.10;99.90
59572;DHT22;74587;45.880;11.484;2024-03-06T02:39:26;7.20;99.90
59572;DHT22;74587;45.880;11.484;2024-03-06T02:41:51;7.10;99.90
59572;DHT22;74587;45.880;11.484;2024-03-06T02:44:17;7.10;99.90
59572;DHT22;74587;45.880;11.484;2024-03-06T02:46:47;7.20;99.90
59572;DHT22;74587;45.880;11.484;2024-03-06T02:49:15;7.00;99.90
59572;DHT22;74587;45.880;11.484;2024-03-06T02:51:41;6.90;99.90
59572;DHT22;74587;45.880;11.484;2024-03-06T02:54:06;6.80;99.90
59572;DHT22;74587;45.880;11.484;2024-03-06T02:56:32;6.90;99.90
59572;DHT22;74587;45.880;11.484;2024-03-06T02:58:58;6.60;99.90
59572;DHT22;74587;45.880;11.484;2024-03-06T03:01:24;6.60;99.90
59572;DHT22;74587;45.880;11.484;2024-03-06T03:03:50;6.70;99.90
59572;DHT22;74587;45.880;11.484;2024-03-06T03:06:17;6.70;99.90
59572;DHT22;74587;45.880;11.484;2024-03-06T03:08:42;6.70;99.90
59572;DHT22;74587;45.880;11.484;2024-03-06T03:11:08;6.80;99.90
59572;DHT22;74587;45.880;11.484;2024-03-06T03:13:35;6.80;99.90
59572;DHT22;74587;45.880;11.484;2024-03-06T03:16:01;6.80;99.90
59572;DHT22;74587;45.880;11.484;2024-03-06T03:18:29;6.80;99.90
59572;DHT22;74587;45.880;11.484;2024-03-06T03:20:55;6.70;99.90
59572;DHT22;74587;45.880;11.484;2024-03-06T03:23:21;6.80;99.90
59572;DHT22;74587;45.880;11.484;2024-03-06T03:25:50;6.70;99.90
59572;DHT22;74587;45.880;11.484;2024-03-06T03:28:16;6.60;99.90
59572;DHT22;74587;45.880;11.484;2024-03-06T03:30:45;6.80;99.90
59572;DHT22;74587;45.880;11.484;2024-03-06T03:33:11;6.70;99.90
59572;DHT22;74587;45.880;11.484;2024-03-06T03:35:37;6.50;99.90
59572;DHT22;74587;45.880;11.484;2024-03-06T03:38:03;6.80;99.90
59572;DHT22;74587;45.880;11.484;2024-03-06T03:40:29;6.80;99.90
59572;DHT22;74587;45.880;11.484;2024-03-06T03:42:55;6.80;99.90
59572;DHT22;74587;45.880;11.484;2024-03-06T03:45:21;6.70;99.90
59572;DHT22;74587;45.880;11.484;2024-03-06T03:47:47;6.80;99.90
59572;DHT22;74587;45.880;11.484;2024-03-06T03:50:13;6.70;99.90
59572;DHT22;74587;45.880;11.484;2024-03-06T03:52:39;6.70;99.90
59572;DHT22;74587;45.880;11.484;2024-03-06T03:55:08;6.70;99.90
59572;DHT22;74587;45.880;11.484;2024-03-06T03:57:34;6.60;99.90
59572;DHT22;74587;45.880;11.484;2024-03-06T04:00:01;6.60;99.90
59572;DHT22;74587;45.880;11.484;2024-03-06T04:02:27;6.60;99.90
59572;DHT22;74587;45.880;11.484;2024-03-06T04:04:53;6.60;99.90
59572;DHT22;74587;45.880;11.484;2024-03-06T04:07:21;6.60;99.90
59572;DHT22;74587;45.880;11.484;2024-03-06T04:09:47;6.50;99.90
59572;DHT22;74587;45.880;11.484;2024-03-06T04:12:13;6.50;99.90
59572;DHT22;74587;45.880;11.484;2024-03-06T04:14:39;6.60;99.90
59572;DHT22;74587;45.880;11.484;2024-03-06T04:17:05;6.40;99.90
59572;DHT22;74587;45.880;11.484;2024-03-06T04:19:31;6.50;99.90
59572;DHT22;74587;45.880;11.484;2024-03-06T04:21:57;6.60;99.90
59572;DHT22;74587;45.880;11.484;2024-03-06T04:24:23;6.50;99.90
59572;DHT22;74587;45.880;11.484;2024-03-06T04:26:50;6.50;99.90
59572;DHT22;74587;45.880;11.484;2024-03-06T04:29:16;6.20;99.90
59572;DHT22;74587;45.880;11.484;2024-03-06T04:31:42;6.30;99.90
59572;DHT22;74587;45.880;11.484;2024-03-06T04:34:08;6.60;99.90
59572;DHT22;74587;45.880;11.484;2024-03-06T04:36:34;6.70;99.90
59572;DHT22;74587;45.880;11.484;2024-03-06T04:39:00;6.60;99.90
59572;DHT22;74587;45.880;11.484;2024-03-06T04:41:26;6.30;99.90
59572;DHT22;74587;45.880;11.484;2024-03-06T04:43:51;6.40;99.90
59572;DHT22;74587;45.880;11.484;2024-03-06T04:46:18;6.20;99.90
59572;DHT22;74587;45.880;11.484;2024-03-06T04:48:44;5.90;99.90
59572;DHT22;74587;45.880;11.484;2024-03-06T04:51:12;5.80;99.90
59572;DHT22;74587;45.880;11.484;2024-03-06T04:53:38;6.00;99.90
59572;DHT22;74587;45.880;11.484;2024-03-06T04:56:04;6.20;99.90
59572;DHT22;74587;45.880;11.484;2024-03-06T04:58:32;6.10;99.90
59572;DHT22;74587;45.880;11.484;2024-03-06T05:00:58;6.30;99.90
59572;DHT22;74587;45.880;11.484;2024-03-06T05:03:26;6.30;99.90
59572;DHT22;74587;45.880;11.484;2024-03-06T05:05:52;6.40;99.90
59572;DHT22;74587;45.880;11.484;2024-03-06T05:08:18;6.50;99.90
59572;DHT22;74587;45.880;11.484;2024-03-06T05:10:44;6.60;99.90
59572;DHT22;74587;45.880;11.484;2024-03-06T05:13:10;6.50;99.90
59572;DHT22;74587;45.880;11.484;2024-03-06T05:15:36;6.70;99.90
59572;DHT22;74587;45.880;11.484;2024-03-06T05:18:02;6.50;99.90
59572;DHT22;74587;45.880;11.484;2024-03-06T05:20:30;6.30;99.90
59572;DHT22;74587;45.880;11.484;2024-03-06T05:22:59;6.10;99.90
59572;DHT22;74587;45.880;11.484;2024-03-06T05:25:25;6.10;99.90
59572;DHT22;74587;45.880;11.484;2024-03-06T05:27:51;5.80;99.90
59572;DHT22;74587;45.880;11.484;2024-03-06T05:30:17;6.00;99.90
59572;DHT22;74587;45.880;11.484;2024-03-06T05:32:43;5.90;99.90
59572;DHT22;74587;45.880;11.484;2024-03-06T05:35:09;5.80;99.90
59572;DHT22;74587;45.880;11.484;2024-03-06T05:37:36;6.00;99.90
59572;DHT22;74587;45.880;11.484;2024-03-06T05:40:02;5.80;99.90
59572;DHT22;74587;45.880;11.484;2024-03-06T05:42:30;5.90;99.90
59572;DHT22;74587;45.880;11.484;2024-03-06T05:44:57;5.80;99.90
59572;DHT22;74587;45.880;11.484;2024-03-06T05:47:36;5.50;99.90
59572;DHT22;74587;45.880;11.484;2024-03-06T05:50:04;5.50;99.90
59572;DHT22;74587;45.880;11.484;2024-03-06T05:52:31;6.00;99.90
59572;DHT22;74587;45.880;11.484;2024-03-06T05:54:57;5.70;99.90
59572;DHT22;74587;45.880;11.484;2024-03-06T05:57:26;5.60;99.90
59572;DHT22;74587;45.880;11.484;2024-03-06T05:59:52;5.80;99.90
59572;DHT22;74587;45.880;11.484;2024-03-06T06:02:18;5.90;99.90
59572;DHT22;74587;45.880;11.484;2024-03-06T06:04:47;5.60;99.90
59572;DHT22;74587;45.880;11.484;2024-03-06T06:07:14;5.50;99.90
59572;DHT22;74587;45.880;11.484;2024-03-06T06:09:42;5.40;99.90
59572;DHT22;74587;45.880;11.484;2024-03-06T06:12:11;5.20;99.90
59572;DHT22;74587;45.880;11.484;2024-03-06T06:14:38;5.30;99.90
59572;DHT22;74587;45.880;11.484;2024-03-06T06:17:08;5.20;99.90
59572;DHT22;74587;45.880;11.484;2024-03-06T06:19:35;5.30;99.90
59572;DHT22;74587;45.880;11.484;2024-03-06T06:22:01;5.40;99.90
59572;DHT22;74587;45.880;11.484;2024-03-06T06:24:27;5.70;99.90
59572;DHT22;74587;45.880;11.484;2024-03-06T06:26:53;5.70;99.90
59572;DHT22;74587;45.880;11.484;2024-03-06T06:29:19;5.80;99.90
59572;DHT22;74587;45.880;11.484;2024-03-06T06:31:45;5.70;99.90
59572;DHT22;74587;45.880;11.484;2024-03-06T06:34:11;5.80;99.90
59572;DHT22;74587;45.880;11.484;2024-03-06T06:36:37;5.90;99.90
59572;DHT22;74587;45.880;11.484;2024-03-06T06:39:03;6.00;99.90
59572;DHT22;74587;45.880;11.484;2024-03-06T06:41:49;6.00;99.90
59572;DHT22;74587;45.880;11.484;2024-03-06T06:44:15;6.20;99.90
59572;DHT22;74587;45.880;11.484;2024-03-06T06:46:41;6.10;99.90
59572;DHT22;74587;45.880;11.484;2024-03-06T06:49:08;6.30;99.90
59572;DHT22;74587;45.880;11.484;2024-03-06T06:51:34;6.30;99.90
59572;DHT22;74587;45.880;11.484;2024-03-06T06:54:01;6.20;99.90
59572;DHT22;74587;45.880;11.484;2024-03-06T06:56:27;6.40;99.90
59572;DHT22;74587;45.880;11.484;2024-03-06T06:58:56;6.50;99.90
59572;DHT22;74587;45.880;11.484;2024-03-06T07:01:22;6.50;99.90
59572;DHT22;74587;45.880;11.484;2024-03-06T07:03:48;6.60;99.90
59572;DHT22;74587;45.880;11.484;2024-03-06T07:19:35;6.80;99.90
59572;DHT22;74587;45.880;11.484;2024-03-06T07:22:01;6.90;99.90
59572;DHT22;74587;45.880;11.484;2024-03-06T07:24:27;6.90;99.90
59572;DHT22;74587;45.880;11.484;2024-03-06T07:26:52;6.80;98.80
59572;DHT22;74587;45.880;11.484;2024-03-06T07:29:18;6.70;99.20
59572;DHT22;74587;45.880;11.484;2024-03-06T07:31:44;6.70;99.90
59572;DHT22;74587;45.880;11.484;2024-03-06T07:34:10;6.70;99.90
59572;DHT22;74587;45.880;11.484;2024-03-06T07:36:36;6.70;99.90
59572;DHT22;74587;45.880;11.484;2024-03-06T07:39:02;6.80;99.90
59572;DHT22;74587;45.880;11.484;2024-03-06T07:41:28;7.00;99.90
59572;DHT22;74587;45.880;11.484;2024-03-06T07:43:57;7.20;99.90
59572;DHT22;74587;45.880;11.484;2024-03-06T07:46:22;6.80;99.90
59572;DHT22;74587;45.880;11.484;2024-03-06T07:48:48;6.90;99.90
59572;DHT22;74587;45.880;11.484;2024-03-06T07:51:14;7.20;99.90
59572;DHT22;74587;45.880;11.484;2024-03-06T07:53:40;7.60;99.90
59572;DHT22;74587;45.880;11.484;2024-03-06T07:56:06;7.50;99.90
59572;DHT22;74587;45.880;11.484;2024-03-06T07:58:31;7.80;99.90
59572;DHT22;74587;45.880;11.484;2024-03-06T08:00:58;7.40;96.20
59572;DHT22;74587;45.880;11.484;2024-03-06T08:03:24;7.00;96.20
59572;DHT22;74587;45.880;11.484;2024-03-06T08:05:51;7.20;98.00
59572;DHT22;74587;45.880;11.484;2024-03-06T08:08:21;7.20;97.50
59572;DHT22;74587;45.880;11.484;2024-03-06T08:10:47;7.30;96.10
59572;DHT22;74587;45.880;11.484;2024-03-06T08:13:13;7.40;94.10
59572;DHT22;74587;45.880;11.484;2024-03-06T08:15:39;7.30;94.40
59572;DHT22;74587;45.880;11.484;2024-03-06T08:18:06;7.30;92.90
59572;DHT22;74587;45.880;11.484;2024-03-06T08:20:32;7.00;92.80
59572;DHT22;74587;45.880;11.484;2024-03-06T08:22:58;7.00;96.10
59572;DHT22;74587;45.880;11.484;2024-03-06T08:25:24;7.30;96.00
59572;DHT22;74587;45.880;11.484;2024-03-06T08:27:50;7.30;95.60
59572;DHT22;74587;45.880;11.484;2024-03-06T08:30:16;7.40;96.00
59572;DHT22;74587;45.880;11.484;2024-03-06T08:32:42;7.40;98.50
59572;DHT22;74587;45.880;11.484;2024-03-06T08:35:12;7.10;98.10
59572;DHT22;74587;45.880;11.484;2024-03-06T08:37:41;7.40;99.90
59572;DHT22;74587;45.880;11.484;2024-03-06T08:40:08;7.50;98.60
59572;DHT22;74587;45.880;11.484;2024-03-06T08:42:36;7.20;90.20
59572;DHT22;74587;45.880;11.484;2024-03-06T08:45:02;7.60;92.40
59572;DHT22;74587;45.880;11.484;2024-03-06T08:47:28;7.90;90.20
59572;DHT22;74587;45.880;11.484;2024-03-06T08:49:54;7.30;90.30
59572;DHT22;74587;45.880;11.484;2024-03-06T08:52:20;7.50;91.30
59572;DHT22;74587;45.880;11.484;2024-03-06T08:54:46;7.80;91.00
59572;DHT22;74587;45.880;11.484;2024-03-06T08:57:12;7.90;90.20
59572;DHT22;74587;45.880;11.484;2024-03-06T08:59:38;7.90;91.20
59572;DHT22;74587;45.880;11.484;2024-03-06T09:02:13;8.00;89.50
59572;DHT22;74587;45.880;11.484;2024-03-06T09:04:43;7.90;88.40
59572;DHT22;74587;45.880;11.484;2024-03-06T09:07:09;8.00;87.90
59572;DHT22;74587;45.880;11.484;2024-03-06T09:09:38;8.20;88.20
59572;DHT22;74587;45.880;11.484;2024-03-06T09:12:05;8.10;87.00
59572;DHT22;74587;45.880;11.484;2024-03-06T09:14:35;8.20;88.00
59572;DHT22;74587;45.880;11.484;2024-03-06T09:17:01;8.10;89.80
59572;DHT22;74587;45.880;11.484;2024-03-06T09:19:27;8.00;88.30
59572;DHT22;74587;45.880;11.484;2024-03-06T09:21:53;7.90;86.20
59572;DHT22;74587;45.880;11.484;2024-03-06T09:24:21;8.10;87.20
59572;DHT22;74587;45.880;11.484;2024-03-06T09:26:48;8.50;86.60
59572;DHT22;74587;45.880;11.484;2024-03-06T09:29:14;8.50;83.80
59572;DHT22;74587;45.880;11.484;2024-03-06T09:31:40;8.80;82.80
59572;DHT22;74587;45.880;11.484;2024-03-06T09:34:05;8.80;81.90
59572;DHT22;74587;45.880;11.484;2024-03-06T09:36:31;8.90;82.20
59572;DHT22;74587;45.880;11.484;2024-03-06T09:38:59;8.80;81.80
59572;DHT22;74587;45.880;11.484;2024-03-06T09:41:25;8.90;82.10
59572;DHT22;74587;45.880;11.484;2024-03-06T09:43:50;8.70;82.00
59572;DHT22;74587;45.880;11.484;2024-03-06T09:46:17;8.90;81.80
59572;DHT22;74587;45.880;11.484;2024-03-06T09:48:47;9.00;82.00
59572;DHT22;74587;45.880;11.484;2024-03-06T09:51:14;8.90;80.70
59572;DHT22;74587;45.880;11.484;2024-03-06T09:53:41;8.90;80.60
59572;DHT22;74587;45.880;11.484;2024-03-06T09:56:08;9.00;80.90
59572;DHT22;74587;45.880;11.484;2024-03-06T09:58:36;9.00;80.90
59572;DHT22;74587;45.880;11.484;2024-03-06T10:01:02;9.20;81.80
59572;DHT22;74587;45.880;11.484;2024-03-06T10:03:30;9.40;82.40
59572;DHT22;74587;45.880;11.484;2024-03-06T10:05:55;9.80;82.30
59572;DHT22;74587;45.880;11.484;2024-03-06T10:08:22;9.90;81.10
59572;DHT22;74587;45.880;11.484;2024-03-06T10:10:49;9.50;81.10
59572;DHT22;74587;45.880;11.484;2024-03-06T10:13:22;10.00;81.30
59572;DHT22;74587;45.880;11.484;2024-03-06T10:16:04;9.90;81.10
59572;DHT22;74587;45.880;11.484;2024-03-06T10:18:34;9.40;81.00
59572;DHT22;74587;45.880;11.484;2024-03-06T10:21:00;8.70;81.30
59572;DHT22;74587;45.880;11.484;2024-03-06T10:23:29;8.80;81.70
59572;DHT22;74587;45.880;11.484;2024-03-06T10:25:55;9.30;81.30
59572;DHT22;74587;45.880;11.484;2024-03-06T10:28:22;9.50;80.70
59572;DHT22;74587;45.880;11.484;2024-03-06T10:30:49;9.30;80.80
59572;DHT22;74587;45.880;11.484;2024-03-06T10:33:16;9.50;81.40
59572;DHT22;74587;45.880;11.484;2024-03-06T10:35:45;9.50;80.90
59572;DHT22;74587;45.880;11.484;2024-03-06T10:38:12;9.70;81.10
59572;DHT22;74587;45.880;11.484;2024-03-06T10:40:43;9.90;80.10
59572;DHT22;74587;45.880;11.484;2024-03-06T10:43:10;9.50;80.20
59572;DHT22;74587;45.880;11.484;2024-03-06T10:46:01;9.30;79.40
59572;DHT22;74587;45.880;11.484;2024-03-06T10:48:31;9.50;80.60
59572;DHT22;74587;45.880;11.484;2024-03-06T10:50:57;9.70;79.60
59572;DHT22;74587;45.880;11.484;2024-03-06T10:53:28;9.70;78.90
59572;DHT22;74587;45.880;11.484;2024-03-06T10:55:58;9.60;78.50
59572;DHT22;74587;45.880;11.484;2024-03-06T10:58:25;10.00;78.60
59572;DHT22;74587;45.880;11.484;2024-03-06T11:00:51;10.30;78.70
59572;DHT22;74587;45.880;11.484;2024-03-06T11:03:17;10.00;78.60
59572;DHT22;74587;45.880;11.484;2024-03-06T11:05:44;9.70;78.60
59572;DHT22;74587;45.880;11.484;2024-03-06T11:08:13;10.10;78.90
59572;DHT22;74587;45.880;11.484;2024-03-06T11:10:41;10.30;77.90
59572;DHT22;74587;45.880;11.484;2024-03-06T11:13:30;10.50;77.70
59572;DHT22;74587;45.880;11.484;2024-03-06T11:16:01;10.60;78.00
59572;DHT22;74587;45.880;11.484;2024-03-06T11:24:13;10.50;77.30
59572;DHT22;74587;45.880;11.484;2024-03-06T11:26:46;10.50;76.70
59572;DHT22;74587;45.880;11.484;2024-03-06T11:29:17;10.70;76.50
59572;DHT22;74587;45.880;11.484;2024-03-06T11:32:02;10.90;77.20
59572;DHT22;74587;45.880;11.484;2024-03-06T11:34:29;11.60;77.40
59572;DHT22;74587;45.880;11.484;2024-03-06T11:36:59;12.40;77.10
59572;DHT22;74587;45.880;11.484;2024-03-06T11:39:28;11.80;76.30
59572;DHT22;74587;45.880;11.484;2024-03-06T11:41:56;11.70;77.10
59572;DHT22;74587;45.880;11.484;2024-03-06T11:44:22;11.00;76.30
59572;DHT22;74587;45.880;11.484;2024-03-06T11:47:07;10.70;76.00
59572;DHT22;74587;45.880;11.484;2024-03-06T11:49:34;10.80;76.40
59572;DHT22;74587;45.880;11.484;2024-03-06T11:52:05;10.80;76.80
59572;DHT22;74587;45.880;11.484;2024-03-06T11:54:32;11.00;77.00
59572;DHT22;74587;45.880;11.484;2024-03-06T11:57:02;11.10;76.50
59572;DHT22;74587;45.880;11.484;2024-03-06T11:59:30;10.80;76.80
59572;DHT22;74587;45.880;11.484;2024-03-06T12:02:02;10.60;77.60
59572;DHT22;74587;45.880;11.484;2024-03-06T12:04:34;10.50;78.00
59572;DHT22;74587;45.880;11.484;2024-03-06T12:07:01;10.90;77.90
59572;DHT22;74587;45.880;11.484;2024-03-06T12:09:38;11.40;77.20
59572;DHT22;74587;45.880;11.484;2024-03-06T12:12:04;11.60;77.40
59572;DHT22;74587;45.880;11.484;2024-03-06T12:14:35;11.20;77.50
59572;DHT22;74587;45.880;11.484;2024-03-06T12:17:01;11.10;77.30
59572;DHT22;74587;45.880;11.484;2024-03-06T12:19:36;11.10;77.80
59572;DHT22;74587;45.880;11.484;2024-03-06T12:22:03;10.90;78.00
59572;DHT22;74587;45.880;11.484;2024-03-06T12:24:30;10.90;78.20
59572;DHT22;74587;45.880;11.484;2024-03-06T12:27:03;11.00;78.50
59572;DHT22;74587;45.880;11.484;2024-03-06T12:29:31;10.50;77.90
59572;DHT22;74587;45.880;11.484;2024-03-06T12:32:01;10.90;77.90
59572;DHT22;74587;45.880;11.484;2024-03-06T12:34:28;10.50;76.70
59572;DHT22;74587;45.880;11.484;2024-03-06T12:36:53;10.30;75.50
59572;DHT22;74587;45.880;11.484;2024-03-06T12:39:19;9.90;76.10
59572;DHT22;74587;45.880;11.484;2024-03-06T12:41:51;9.80;76.40
59572;DHT22;74587;45.880;11.484;2024-03-06T12:44:20;9.80;76.20
59572;DHT22;74587;45.880;11.484;2024-03-06T12:46:46;9.80;76.70
59572;DHT22;74587;45.880;11.484;2024-03-06T12:49:11;9.90;77.30
59572;DHT22;74587;45.880;11.484;2024-03-06T12:51:37;9.60;77.50
59572;DHT22;74587;45.880;11.484;2024-03-06T12:54:03;9.90;78.40
59572;DHT22;74587;45.880;11.484;2024-03-06T12:56:29;9.90;78.80
59572;DHT22;74587;45.880;11.484;2024-03-06T12:58:55;9.90;78.50
59572;DHT22;74587;45.880;11.484;2024-03-06T13:01:21;9.80;79.20
59572;DHT22;74587;45.880;11.484;2024-03-06T13:03:47;9.60;78.80
59572;DHT22;74587;45.880;11.484;2024-03-06T13:06:13;9.60;78.70
59572;DHT22;74587;45.880;11.484;2024-03-06T13:08:38;9.70;79.00
59572;DHT22;74587;45.880;11.484;2024-03-06T13:11:04;9.90;79.00
59572;DHT22;74587;45.880;11.484;2024-03-06T13:13:30;10.00;78.70
59572;DHT22;74587;45.880;11.484;2024-03-06T13:15:58;10.20;79.00
59572;DHT22;74587;45.880;11.484;2024-03-06T13:18:24;10.10;79.20
59572;DHT22;74587;45.880;11.484;2024-03-06T13:20:51;10.30;78.90
59572;DHT22;74587;45.880;11.484;2024-03-06T13:23:17;10.40;78.60
59572;DHT22;74587;45.880;11.484;2024-03-06T13:25:43;10.40;78.70
59572;DHT22;74587;45.880;11.484;2024-03-06T13:28:11;10.50;78.40
59572;DHT22;74587;45.880;11.484;2024-03-06T13:30:37;10.80;78.70
59572;DHT22;74587;45.880;11.484;2024-03-06T13:33:04;10.90;78.40
59572;DHT22;74587;45.880;11.484;2024-03-06T13:35:31;11.10;78.50
59572;DHT22;74587;45.880;11.484;2024-03-06T13:37:56;11.20;78.30
59572;DHT22;74587;45.880;11.484;2024-03-06T13:40:23;11.20;77.40
59572;DHT22;74587;45.880;11.484;2024-03-06T13:42:49;11.10;77.60
59572;DHT22;74587;45.880;11.484;2024-03-06T13:45:14;10.90;77.90
59572;DHT22;74587;45.880;11.484;2024-03-06T13:47:42;11.10;77.90
59572;DHT22;74587;45.880;11.484;2024-03-06T13:50:12;11.10;77.00
59572;DHT22;74587;45.880;11.484;2024-03-06T13:52:39;10.90;77.30
59572;DHT22;74587;45.880;11.484;2024-03-06T13:55:06;11.10;77.30
59572;DHT22;74587;45.880;11.484;2024-03-06T13:57:32;10.90;77.30
59572;DHT22;74587;45.880;11.484;2024-03-06T14:00:20;11.20;77.20
59572;DHT22;74587;45.880;11.484;2024-03-06T14:02:47;11.60;77.10
59572;DHT22;74587;45.880;11.484;2024-03-06T14:05:13;11.40;76.90
59572;DHT22;74587;45.880;11.484;2024-03-06T14:07:40;11.50;77.30
59572;DHT22;74587;45.880;11.484;2024-03-06T14:10:06;11.70;77.20
59572;DHT22;74587;45.880;11.484;2024-03-06T14:12:34;11.60;77.00
59572;DHT22;74587;45.880;11.484;2024-03-06T14:15:01;11.60;77.10
59572;DHT22;74587;45.880;11.484;2024-03-06T14:17:27;11.50;75.80
59572;DHT22;74587;45.880;11.484;2024-03-06T14:19:52;11.30;76.40
59572;DHT22;74587;45.880;11.484;2024-03-06T14:22:18;11.10;77.50
59572;DHT22;74587;45.880;11.484;2024-03-06T14:24:44;11.10;77.50
59572;DHT22;74587;45.880;11.484;2024-03-06T14:27:10;11.10;77.50
59572;DHT22;74587;45.880;11.484;2024-03-06T14:29:36;11.10;77.70
59572;DHT22;74587;45.880;11.484;2024-03-06T14:32:02;10.60;78.20
59572;DHT22;74587;45.880;11.484;2024-03-06T14:34:28;10.90;78.50
59572;DHT22;74587;45.880;11.484;2024-03-06T14:36:54;11.20;78.30
59572;DHT22;74587;45.880;11.484;2024-03-06T14:39:19;11.20;77.10
59572;DHT22;74587;45.880;11.484;2024-03-06T14:41:49;11.30;77.80
59572;DHT22;74587;45.880;11.484;2024-03-06T14:44:15;11.40;77.70
59572;DHT22;74587;45.880;11.484;2024-03-06T14:46:41;11.20;77.50
59572;DHT22;74587;45.880;11.484;2024-03-06T14:49:08;10.80;78.10
59572;DHT22;74587;45.880;11.484;2024-03-06T14:51:33;10.60;78.40
59572;DHT22;74587;45.880;11.484;2024-03-06T14:53:59;10.80;78.60
59572;DHT22;74587;45.880;11.484;2024-03-06T14:56:25;10.90;78.50
59572;DHT22;74587;45.880;11.484;2024-03-06T14:58:51;11.10;78.60
59572;DHT22;74587;45.880;11.484;2024-03-06T15:01:17;11.10;78.80
59572;DHT22;74587;45.880;11.484;2024-03-06T15:03:43;11.20;78.90
59572;DHT22;74587;45.880;11.484;2024-03-06T15:06:11;11.30;78.90
59572;DHT22;74587;45.880;11.484;2024-03-06T15:08:37;11.30;79.00
59572;DHT22;74587;45.880;11.484;2024-03-06T15:11:03;11.30;79.40
59572;DHT22;74587;45.880;11.484;2024-03-06T15:13:29;11.30;79.40
59572;DHT22;74587;45.880;11.484;2024-03-06T15:15:54;11.20;79.60
59572;DHT22;74587;45.880;11.484;2024-03-06T15:18:20;11.00;79.20
59572;DHT22;74587;45.880;11.484;2024-03-06T15:20:46;10.70;79.00
59572;DHT22;74587;45.880;11.484;2024-03-06T15:23:12;10.60;79.20
59572;DHT22;74587;45.880;11.484;2024-03-06T15:25:37;10.50;79.30
59572;DHT22;74587;45.880;11.484;2024-03-06T15:28:04;10.40;79.00
59572;DHT22;74587;45.880;11.484;2024-03-06T15:30:29;10.10;79.00
59572;DHT22;74587;45.880;11.484;2024-03-06T15:32:57;10.20;78.60
59572;DHT22;74587;45.880;11.484;2024-03-06T15:35:23;10.20;78.50
59572;DHT22;74587;45.880;11.484;2024-03-06T15:37:49;10.20;79.30
59572;DHT22;74587;45.880;11.484;2024-03-06T15:40:15;10.30;79.70
59572;DHT22;74587;45.880;11.484;2024-03-06T15:42:41;10.10;80.30
59572;DHT22;74587;45.880;11.484;2024-03-06T15:45:10;10.20;81.00
59572;DHT22;74587;45.880;11.484;2024-03-06T15:47:36;10.10;80.90
59572;DHT22;74587;45.880;11.484;2024-03-06T15:50:04;10.20;81.20